Time;durP1;ratioP1;P1;durP2;ratioP2;P2;SDS_P1;SDS_P2;PMS_P1;PMS_P2;Temp;Humidity;BMP_temperature;BMP_pressure;BME280_temperature;BME280_humidity;BME280_pressure;Samples;Min_cycle;Max_cycle;Signal;HPM_P1;HPM_P2
2021/01/08 00:00:35;;;;;;;;;;;;;;;-147.53;100.00;59759.91;4856329;29;19916;-85
2021/01/08 00:03:00;;;;;;;;;;;;;;;-147.53;100.00;59759.91;4872193;29;19916;-84
2021/01/08 00:05:25;;;;;;;;;;;;;;;-147.53;100.00;59759.91;4855985;29;20303;-85
2021/01/08 00:07:50;;;;;;;;;;;;;;;-147.53;100.00;59759.91;4855767;29;19920;-83
2021/01/08 00:10:16;;;;;;;;;;;;;;;-147.53;100.00;59759.91;4855610;29;19941;-85
2021/01/08 00:12:43;;;;;;;;;;;;;;;-147.53;100.00;59759.91;4872311;29;19916;-83
2021/01/08 00:15:09;;;;;;;;;;;;;;;-147.53;100.00;59759.91;4870816;29;19916;-84
2021/01/08 00:17:34;;;;;;;;;;;;;;;-147.53;100.00;59759.91;4854586;29;20053;-84
2021/01/08 00:19:59;;;;;;;;;;;;;;;-147.53;100.00;59759.91;4870916;29;19970;-84
2021/01/08 00:22:25;;;;;;;;;;;;;;;-147.53;100.00;59759.91;4854523;29;20390;-86
2021/01/08 00:24:51;;;;;;;;;;;;;;;-147.53;100.00;59759.91;4854614;29;19916;-84
2021/01/08 00:27:16;;;;;;;;;;;;;;;-147.53;100.00;59759.91;4854231;29;20587;-84
2021/01/08 00:29:42;;;;;;;;;;;;;;;-147.53;100.00;59759.91;4870678;29;19922;-85
2021/01/08 00:32:11;;;;;;;;;;;;;;;-147.53;100.00;59759.91;4870825;29;19916;-84
2021/01/08 00:34:36;;;;;;;;;;;;;;;-147.53;100.00;59759.91;4870183;29;19916;-85
2021/01/08 00:37:02;;;;;;;;;;;;;;;-147.53;100.00;59759.91;4855946;29;19916;-87
2021/01/08 00:39:27;;;;;;;;;;;;;;;-147.53;100.00;59759.91;4855255;29;19916;-84
2021/01/08 00:41:52;;;;;;;;;;;;;;;-147.53;100.00;59759.91;4854695;29;19967;-87
2021/01/08 00:44:17;;;;;;;;;;;;;;;-147.53;100.00;59759.91;4854728;29;19915;-86
2021/01/08 00:46:44;;;;;;;;;;;;;;;-147.53;100.00;59759.91;4854717;29;19923;-86
2021/01/08 00:49:09;;;;;;;;;;;;;;;-147.53;100.00;59759.91;4869493;29;19979;-85
2021/01/08 00:51:35;;;;;;;;;;;;;;;-147.53;100.00;59759.91;4854521;29;19927;-86
2021/01/08 00:54:01;;;;;;;;;;;;;;;-147.53;100.00;59759.91;4854192;29;19916;-85
2021/01/08 00:56:26;;;;;;;;;;;;;;;-147.53;100.00;59759.91;4871436;29;19916;-86
2021/01/08 00:58:52;;;;;;;;;;;;;;;-147.53;100.00;59759.91;4855076;29;19941;-86
2021/01/08 01:01:17;;;;;;;;;;;;;;;-147.53;100.00;59759.91;4870998;29;19916;-85
2021/01/08 01:03:42;;;;;;;;;;;;;;;-147.53;100.00;59759.91;4870306;29;20438;-84
2021/01/08 01:06:08;;;;;;;;;;;;;;;-147.53;100.00;59759.91;4854211;29;19916;-86
2021/01/08 01:08:33;;;;;;;;;;;;;;;-147.53;100.00;59759.91;4875149;29;19920;-86
2021/01/08 01:11:00;;;;;;;;;;;;;;;-147.53;100.00;59759.91;4876681;29;19916;-86
2021/01/08 01:13:26;;;;;;;;;;;;;;;-147.53;100.00;59759.91;4875513;29;19937;-85
2021/01/08 01:15:51;;;;;;;;;;;;;;;-147.53;100.00;59759.91;4877088;29;19916;-85
2021/01/08 01:18:16;;;;;;;;;;;;;;;-147.53;100.00;59759.91;4844748;29;19948;-86
2021/01/08 01:20:42;;;;;;;;;;;;;;;-147.53;100.00;59759.91;4858527;29;20422;-86
2021/01/08 01:23:07;;;;;;;;;;;;;;;-147.53;100.00;59759.91;4857471;29;19983;-86
2021/01/08 01:25:32;;;;;;;;;;;;;;;-147.53;100.00;59759.91;4871328;29;19916;-85
2021/01/08 01:27:58;;;;;;;;;;;;;;;-147.53;100.00;59759.91;4855372;29;20327;-86
2021/01/08 01:30:23;;;;;;;;;;;;;;;-147.53;100.00;59759.91;4869248;29;19972;-86
2021/01/08 01:32:48;;;;;;;;;;;;;;;-147.53;100.00;59759.91;4857038;29;20018;-85
2021/01/08 01:35:14;;;;;;;;;;;;;;;-147.53;100.00;59759.91;4858500;29;19952;-85
2021/01/08 01:37:39;;;;;;;;;;;;;;;-147.53;100.00;59759.91;4874936;29;19916;-85
2021/01/08 01:40:06;;;;;;;;;;;;;;;-147.53;100.00;59759.91;4875278;29;20025;-85
2021/01/08 01:42:32;;;;;;;;;;;;;;;-147.53;100.00;59759.91;4858932;29;19951;-86
2021/01/08 01:44:57;;;;;;;;;;;;;;;-147.53;100.00;59759.91;4858871;29;19923;-85
2021/01/08 01:47:22;;;;;;;;;;;;;;;-147.53;100.00;59759.91;4858717;29;19931;-85
2021/01/08 01:49:48;;;;;;;;;;;;;;;-147.53;100.00;59759.91;4875525;29;19916;-85
2021/01/08 01:52:13;;;;;;;;;;;;;;;-147.53;100.00;59759.91;4859937;29;19920;-85
2021/01/08 01:54:38;;;;;;;;;;;;;;;-147.53;100.00;59759.91;4874966;29;19983;-85
2021/01/08 01:57:04;;;;;;;;;;;;;;;-147.53;100.00;59759.91;4875526;29;20398;-85
2021/01/08 01:59:29;;;;;;;;;;;;;;;-147.53;100.00;59759.91;4874892;29;20014;-86
2021/01/08 02:01:55;;;;;;;;;;;;;;;-147.53;100.00;59759.91;4859631;29;19916;-85
2021/01/08 02:04:21;;;;;;;;;;;;;;;-147.53;100.00;59759.91;4876635;29;19920;-85
2021/01/08 02:06:47;;;;;;;;;;;;;;;-147.53;100.00;59759.91;4859440;29;19971;-85
2021/01/08 02:09:14;;;;;;;;;;;;;;;-147.53;100.00;59759.91;4859510;29;19926;-86
2021/01/08 02:11:42;;;;;;;;;;;;;;;-147.53;100.00;59759.91;4859739;29;19916;-86
2021/01/08 02:14:31;;;;;;;;;;;;;;;-147.53;100.00;59759.91;4860112;29;19916;-86
2021/01/08 02:16:57;;;;;;;;;;;;;;;-147.53;100.00;59759.91;4853769;29;19915;-86
2021/01/08 02:19:36;;;;;;;;;;;;;;;-147.53;100.00;59759.91;4858019;29;19928;-86
2021/01/08 02:22:11;;;;;;;;;;;;;;;-147.53;100.00;59759.91;4858438;29;19916;-86
2021/01/08 02:24:55;;;;;;;;;;;;;;;-147.53;100.00;59759.91;4875768;29;19919;-85
2021/01/08 02:27:20;;;;;;;;;;;;;;;-147.53;100.00;59759.91;4856521;29;19948;-86
2021/01/08 02:29:45;;;;;;;;;;;;;;;-147.53;100.00;59759.91;4874525;29;19959;-86
2021/01/08 02:32:11;;;;;;;;;;;;;;;-147.53;100.00;59759.91;4876236;29;19916;-86
2021/01/08 02:34:36;;;;;;;;;;;;;;;-147.53;100.00;59759.91;4858735;29;20014;-85
2021/01/08 02:37:02;;;;;;;;;;;;;;;-147.53;100.00;59759.91;4858024;29;19999;-86
2021/01/08 02:39:27;;;;;;;;;;;;;;;-147.53;100.00;59759.91;4869223;29;19920;-86
2021/01/08 02:41:54;;;;;;;;;;;;;;;-147.53;100.00;59759.91;4853364;29;19920;-85
2021/01/08 02:44:20;;;;;;;;;;;;;;;-147.53;100.00;59759.91;4856066;29;19932;-86
2021/01/08 02:46:46;;;;;;;;;;;;;;;-147.53;100.00;59759.91;4857534;29;19920;-86
2021/01/08 02:49:11;;;;;;;;;;;;;;;-147.53;100.00;59759.91;4871572;29;19932;-86
2021/01/08 02:51:36;;;;;;;;;;;;;;;-147.53;100.00;59759.91;4857820;29;19923;-85
2021/01/08 02:54:03;;;;;;;;;;;;;;;-147.53;100.00;59759.91;4853777;29;19912;-86
2021/01/08 02:56:33;;;;;;;;;;;;;;;-147.53;100.00;59759.91;4869884;29;19964;-86
2021/01/08 02:58:59;;;;;;;;;;;;;;;-147.53;100.00;59759.91;4868168;29;19999;-86
2021/01/08 03:01:24;;;;;;;;;;;;;;;-147.53;100.00;59759.91;4869521;29;19944;-86
2021/01/08 03:03:50;;;;;;;;;;;;;;;-147.53;100.00;59759.91;4868950;29;19916;-86
2021/01/08 03:06:15;;;;;;;;;;;;;;;-147.53;100.00;59759.91;4872494;29;19911;-86
2021/01/08 03:08:41;;;;;;;;;;;;;;;-147.53;100.00;59759.91;4856244;29;19920;-86
2021/01/08 03:11:10;;;;;;;;;;;;;;;-147.53;100.00;59759.91;4871769;29;19950;-86
2021/01/08 03:13:37;;;;;;;;;;;;;;;-147.53;100.00;59759.91;4856327;29;20383;-86
2021/01/08 03:16:02;;;;;;;;;;;;;;;-147.53;100.00;59759.91;4856126;29;20109;-87
2021/01/08 03:18:28;;;;;;;;;;;;;;;-147.53;100.00;59759.91;4855550;29;19948;-85
2021/01/08 03:20:53;;;;;;;;;;;;;;;-147.53;100.00;59759.91;4872859;29;19965;-86
2021/01/08 03:23:18;;;;;;;;;;;;;;;-147.53;100.00;59759.91;4856712;29;20355;-86
2021/01/08 03:25:43;;;;;;;;;;;;;;;-147.53;100.00;59759.91;4872721;29;19916;-85
2021/01/08 03:28:09;;;;;;;;;;;;;;;-147.53;100.00;59759.91;4855620;29;19915;-85
2021/01/08 03:30:37;;;;;;;;;;;;;;;-147.53;100.00;59759.91;4871156;29;19916;-86
2021/01/08 03:33:02;;;;;;;;;;;;;;;-147.53;100.00;59759.91;4853141;29;20412;-88
2021/01/08 03:35:27;;;;;;;;;;;;;;;-147.53;100.00;59759.91;4846455;29;19955;-87
2021/01/08 03:37:52;;;;;;;;;;;;;;;-147.53;100.00;59759.91;4846804;29;19927;-86
2021/01/08 03:40:18;;;;;;;;;;;;;;;-147.53;100.00;59759.91;4846294;29;19960;-87
2021/01/08 03:42:43;;;;;;;;;;;;;;;-147.53;100.00;59759.91;4863072;29;20051;-86
2021/01/08 03:45:08;;;;;;;;;;;;;;;-147.53;100.00;59759.91;4863096;29;20019;-87
2021/01/08 03:47:34;;;;;;;;;;;;;;;-147.53;100.00;59759.91;4862940;29;20018;-87
2021/01/08 03:49:59;;;;;;;;;;;;;;;-147.53;100.00;59759.91;4846103;29;20371;-87
2021/01/08 03:52:24;;;;;;;;;;;;;;;-147.53;100.00;59759.91;4845902;29;20373;-86
2021/01/08 03:54:49;;;;;;;;;;;;;;;-147.53;100.00;59759.91;4846146;29;20363;-86
2021/01/08 03:57:15;;;;;;;;;;;;;;;-147.53;100.00;59759.91;4846247;29;20438;-87
2021/01/08 03:59:40;;;;;;;;;;;;;;;-147.53;100.00;59759.91;4846477;29;20004;-87
2021/01/08 04:02:05;;;;;;;;;;;;;;;-147.53;100.00;59759.91;4846512;29;20252;-87
2021/01/08 04:04:31;;;;;;;;;;;;;;;-147.53;100.00;59759.91;4846534;29;20390;-87
2021/01/08 04:06:56;;;;;;;;;;;;;;;-147.53;100.00;59759.91;4846272;29;20393;-86
2021/01/08 04:09:21;;;;;;;;;;;;;;;-147.53;100.00;59759.91;4845638;29;19916;-87
2021/01/08 04:11:47;;;;;;;;;;;;;;;-147.53;100.00;59759.91;4845840;29;19971;-86
2021/01/08 04:14:12;;;;;;;;;;;;;;;-147.53;100.00;59759.91;4845696;29;20003;-85
2021/01/08 04:16:39;;;;;;;;;;;;;;;-147.53;100.00;59759.91;4845417;29;19923;-87
2021/01/08 04:19:05;;;;;;;;;;;;;;;-147.53;100.00;59759.91;4845321;29;19923;-85
2021/01/08 04:21:30;;;;;;;;;;;;;;;-147.53;100.00;59759.91;4845425;29;19916;-86
2021/01/08 04:23:55;;;;;;;;;;;;;;;-147.53;100.00;59759.91;4845322;29;19973;-86
2021/01/08 04:26:20;;;;;;;;;;;;;;;-147.53;100.00;59759.91;4860440;29;19967;-86
2021/01/08 04:28:46;;;;;;;;;;;;;;;-147.53;100.00;59759.91;4845183;29;19972;-86
2021/01/08 04:31:11;;;;;;;;;;;;;;;-147.53;100.00;59759.91;4861819;29;19950;-86
2021/01/08 04:33:36;;;;;;;;;;;;;;;-147.53;100.00;59759.91;4845277;29;19912;-85
2021/01/08 04:36:02;;;;;;;;;;;;;;;-147.53;100.00;59759.91;4845097;29;19916;-85
2021/01/08 04:38:28;;;;;;;;;;;;;;;-147.53;100.00;59759.91;4845208;29;19918;-86
2021/01/08 04:40:53;;;;;;;;;;;;;;;-147.53;100.00;59759.91;4861754;29;19995;-86
2021/01/08 04:43:19;;;;;;;;;;;;;;;-147.53;100.00;59759.91;4847271;29;20011;-86
2021/01/08 04:45:44;;;;;;;;;;;;;;;-147.53;100.00;59759.91;4849394;29;19976;-85
2021/01/08 04:48:11;;;;;;;;;;;;;;;-147.53;100.00;59759.91;4847333;29;20279;-86
2021/01/08 04:50:36;;;;;;;;;;;;;;;-147.53;100.00;59759.91;4845264;29;19916;-86
2021/01/08 04:53:02;;;;;;;;;;;;;;;-147.53;100.00;59759.91;4860163;29;20289;-86
2021/01/08 04:55:28;;;;;;;;;;;;;;;-147.53;100.00;59759.91;4844538;29;20367;-85
2021/01/08 04:57:53;;;;;;;;;;;;;;;-147.53;100.00;59759.91;4844790;29;19932;-85
2021/01/08 05:00:19;;;;;;;;;;;;;;;-147.53;100.00;59759.91;4844747;29;20379;-85
2021/01/08 05:02:45;;;;;;;;;;;;;;;-147.53;100.00;59759.91;4845411;29;19924;-84
2021/01/08 05:05:12;;;;;;;;;;;;;;;-147.53;100.00;59759.91;4861618;29;19916;-85
2021/01/08 05:07:37;;;;;;;;;;;;;;;-147.53;100.00;59759.91;4861135;29;19923;-85
2021/01/08 05:10:03;;;;;;;;;;;;;;;-147.53;100.00;59759.91;4844396;29;19920;-86
2021/01/08 05:12:41;;;;;;;;;;;;;;;-147.53;100.00;59759.91;4844080;29;19916;-85
2021/01/08 05:15:16;;;;;;;;;;;;;;;-147.53;100.00;59759.91;4861235;29;19951;-86
2021/01/08 05:17:41;;;;;;;;;;;;;;;-147.53;100.00;59759.91;4844579;29;19927;-84
2021/01/08 05:20:07;;;;;;;;;;;;;;;-147.53;100.00;59759.91;4861187;29;19924;-85
2021/01/08 05:22:33;;;;;;;;;;;;;;;-147.53;100.00;59759.91;4844695;29;19976;-85
2021/01/08 05:25:16;;;;;;;;;;;;;;;-147.53;100.00;59759.91;4844743;29;19917;-86
2021/01/08 05:27:42;;;;;;;;;;;;;;;-147.53;100.00;59759.91;4841772;29;19916;-85
2021/01/08 05:30:13;;;;;;;;;;;;;;;-147.53;100.00;59759.91;4861178;29;19923;-85
2021/01/08 05:32:38;;;;;;;;;;;;;;;-147.53;100.00;59759.91;4844443;29;19912;-85
2021/01/08 05:35:03;;;;;;;;;;;;;;;-147.53;100.00;59759.91;4844265;29;19972;-86
2021/01/08 05:37:29;;;;;;;;;;;;;;;-147.53;100.00;59759.91;4844267;29;19912;-85
2021/01/08 05:39:59;;;;;;;;;;;;;;;-147.53;100.00;59759.91;4860808;29;20048;-85
2021/01/08 05:42:24;;;;;;;;;;;;;;;-147.53;100.00;59759.91;4844021;29;20075;-85
2021/01/08 05:44:50;;;;;;;;;;;;;;;-147.53;100.00;59759.91;4844259;29;20559;-84
2021/01/08 05:47:16;;;;;;;;;;;;;;;-147.53;100.00;59759.91;4843781;29;19916;-85
2021/01/08 05:49:45;;;;;;;;;;;;;;;-147.53;100.00;59759.91;4844288;29;19924;-85
2021/01/08 05:52:11;;;;;;;;;;;;;;;-147.53;100.00;59759.91;4844337;29;19916;-85
2021/01/08 05:54:36;;;;;;;;;;;;;;;-147.53;100.00;59759.91;4844055;29;20011;-85
2021/01/08 05:57:02;;;;;;;;;;;;;;;-147.53;100.00;59759.91;4844447;29;20015;-85
2021/01/08 05:59:27;;;;;;;;;;;;;;;-147.53;100.00;59759.91;4860733;29;19998;-85
2021/01/08 06:01:55;;;;;;;;;;;;;;;-147.53;100.00;59759.91;4844224;29;19967;-85
2021/01/08 06:04:21;;;;;;;;;;;;;;;-147.53;100.00;59759.91;4860697;29;20290;-86
2021/01/08 06:06:47;;;;;;;;;;;;;;;-147.53;100.00;59759.91;4860403;29;19916;-85
2021/01/08 06:09:14;;;;;;;;;;;;;;;-147.53;100.00;59759.91;4860300;29;19923;-85
2021/01/08 06:11:40;;;;;;;;;;;;;;;-147.53;100.00;59759.91;4860394;29;19941;-85
2021/01/08 06:14:10;;;;;;;;;;;;;;;-147.53;100.00;59759.91;4844150;29;20277;-85
2021/01/08 06:16:36;;;;;;;;;;;;;;;-147.53;100.00;59759.91;4846386;29;19949;-86
2021/01/08 06:19:02;;;;;;;;;;;;;;;-147.53;100.00;59759.91;4846559;29;19942;-85
2021/01/08 06:21:38;;;;;;;;;;;;;;;-147.53;100.00;59759.91;4846054;29;19927;-86
2021/01/08 06:24:03;;;;;;;;;;;;;;;-147.53;100.00;59759.91;4862961;29;19989;-86
2021/01/08 06:26:29;;;;;;;;;;;;;;;-147.53;100.00;59759.91;4862826;29;19923;-85
2021/01/08 06:28:59;;;;;;;;;;;;;;;-147.53;100.00;59759.91;4861790;29;20016;-85
2021/01/08 06:31:25;;;;;;;;;;;;;;;-147.53;100.00;59759.91;4862358;29;19958;-85
2021/01/08 06:33:53;;;;;;;;;;;;;;;-147.53;100.00;59759.91;4844883;29;19923;-85
2021/01/08 06:36:20;;;;;;;;;;;;;;;-147.53;100.00;59759.91;4845060;29;19916;-84
2021/01/08 06:38:48;;;;;;;;;;;;;;;-147.53;100.00;59759.91;4845250;29;19916;-84
2021/01/08 06:41:14;;;;;;;;;;;;;;;-147.53;100.00;59759.91;4845438;29;19920;-83
2021/01/08 06:43:50;;;;;;;;;;;;;;;-147.53;100.00;59759.91;4845517;29;20399;-84
2021/01/08 06:46:21;;;;;;;;;;;;;;;-147.53;100.00;59759.91;4845384;29;19916;-83
2021/01/08 06:48:48;;;;;;;;;;;;;;;-147.53;100.00;59759.91;4862394;29;19927;-86
2021/01/08 06:51:23;;;;;;;;;;;;;;;-147.53;100.00;59759.91;4845678;29;20007;-85
2021/01/08 06:53:49;;;;;;;;;;;;;;;-147.53;100.00;59759.91;4845685;29;20398;-84
2021/01/08 06:56:26;;;;;;;;;;;;;;;-147.53;100.00;59759.91;4844848;29;19922;-85
2021/01/08 06:58:53;;;;;;;;;;;;;;;-147.53;100.00;59759.91;4845345;29;19923;-84
2021/01/08 07:01:19;;;;;;;;;;;;;;;-147.53;100.00;59759.91;4862025;29;20371;-84
2021/01/08 07:03:45;;;;;;;;;;;;;;;-147.53;100.00;59759.91;4862234;29;19916;-85
2021/01/08 07:06:10;;;;;;;;;;;;;;;-147.53;100.00;59759.91;4862202;29;20423;-86
2021/01/08 07:08:35;;;;;;;;;;;;;;;-147.53;100.00;59759.91;4845523;29;19916;-83
2021/01/08 07:11:00;;;;;;;;;;;;;;;-147.53;100.00;59759.91;4855852;29;19944;-85
2021/01/08 07:13:36;;;;;;;;;;;;;;;-147.53;100.00;59759.91;4863039;29;20019;-86
2021/01/08 07:16:01;;;;;;;;;;;;;;;-147.53;100.00;59759.91;4861917;29;19916;-86
2021/01/08 07:18:27;;;;;;;;;;;;;;;-147.53;100.00;59759.91;4825754;29;845221;-88
2021/01/08 07:20:53;;;;;;;;;;;;;;;-147.53;100.00;59759.91;4845334;29;20362;-87
2021/01/08 07:23:25;;;;;;;;;;;;;;;-147.53;100.00;59759.91;4852881;29;19912;-87
2021/01/08 07:25:52;;;;;;;;;;;;;;;-147.53;100.00;59759.91;4862989;29;20050;-86
2021/01/08 07:28:18;;;;;;;;;;;;;;;-147.53;100.00;59759.91;4861607;29;20363;-86
2021/01/08 07:31:05;;;;;;;;;;;;;;;-147.53;100.00;59759.91;4865913;29;19927;-90
2021/01/08 07:33:30;;;;;;;;;;;;;;;-147.53;100.00;59759.91;4865794;29;19916;-88
2021/01/08 07:35:56;;;;;;;;;;;;;;;-147.53;100.00;59759.91;4860318;29;19923;-89
2021/01/08 07:38:34;;;;;;;;;;;;;;;-147.53;100.00;59759.91;4836996;29;20375;-87
2021/01/08 07:40:59;;;;;;;;;;;;;;;-147.53;100.00;59759.91;4846327;29;19927;-91
2021/01/08 07:46:30;;;;;;;;;;;;;;;-147.53;100.00;59759.91;4845500;29;19928;-91
2021/01/08 07:49:02;;;;;;;;;;;;;;;-147.53;100.00;59759.91;4830721;29;20450;-88
2021/01/08 07:51:53;;;;;;;;;;;;;;;-147.53;100.00;59759.91;4828264;29;19989;-86
2021/01/08 07:54:38;;;;;;;;;;;;;;;-147.53;100.00;59759.91;4842331;29;20048;-87
2021/01/08 07:57:14;;;;;;;;;;;;;;;-147.53;100.00;59759.91;4827887;29;19924;-90
2021/01/08 07:59:46;;;;;;;;;;;;;;;-147.53;100.00;59759.91;4844230;29;19916;-92
2021/01/08 08:02:12;;;;;;;;;;;;;;;-147.53;100.00;59759.91;4846068;23;20587;-91
2021/01/08 08:04:38;;;;;;;;;;;;;;;-147.53;100.00;59759.91;4847271;29;19946;-89
2021/01/08 08:07:03;;;;;;;;;;;;;;;-147.53;100.00;59759.91;4846552;29;20382;-87
2021/01/08 08:09:28;;;;;;;;;;;;;;;-147.53;100.00;59759.91;4846224;29;20407;-88
2021/01/08 08:12:00;;;;;;;;;;;;;;;-147.53;100.00;59759.91;4845740;29;19926;-93
2021/01/08 08:14:25;;;;;;;;;;;;;;;-147.53;100.00;59759.91;4848114;29;19916;-87
2021/01/08 08:16:51;;;;;;;;;;;;;;;-147.53;100.00;59759.91;4847796;29;19923;-89
2021/01/08 08:19:16;;;;;;;;;;;;;;;-147.53;100.00;59759.91;4846898;29;20387;-88
2021/01/08 08:21:48;;;;;;;;;;;;;;;-147.53;100.00;59759.91;4862678;29;19923;-88
2021/01/08 08:24:16;;;;;;;;;;;;;;;-147.53;100.00;59759.91;4861814;29;19998;-85
2021/01/08 08:26:42;;;;;;;;;;;;;;;-147.53;100.00;59759.91;4845337;29;19939;-88
2021/01/08 08:29:08;;;;;;;;;;;;;;;-147.53;100.00;59759.91;4845633;29;20383;-87
2021/01/08 08:31:38;;;;;;;;;;;;;;;-147.53;100.00;59759.91;4862540;29;19916;-86
2021/01/08 08:34:04;;;;;;;;;;;;;;;-147.53;100.00;59759.91;4860227;29;19924;-88
2021/01/08 08:36:31;;;;;;;;;;;;;;;-147.53;100.00;59759.91;4862736;29;19972;-83
2021/01/08 08:38:57;;;;;;;;;;;;;;;-147.53;100.00;59759.91;4860844;29;19920;-86
2021/01/08 08:41:23;;;;;;;;;;;;;;;-147.53;100.00;59759.91;4861580;29;19920;-85
2021/01/08 08:43:48;;;;;;;;;;;;;;;-147.53;100.00;59759.91;4860982;29;19926;-90
2021/01/08 08:46:14;;;;;;;;;;;;;;;-147.53;100.00;59759.91;4862302;29;19924;-93
2021/01/08 08:48:39;;;;;;;;;;;;;;;-147.53;100.00;59759.91;4862371;29;19963;-90
2021/01/08 08:51:04;;;;;;;;;;;;;;;-147.53;100.00;59759.91;4840491;29;19921;-88
2021/01/08 08:53:30;;;;;;;;;;;;;;;-147.53;100.00;59759.91;4847866;29;20367;-89
2021/01/08 08:55:55;;;;;;;;;;;;;;;-147.53;100.00;59759.91;4858526;29;19923;-90
2021/01/08 08:58:20;;;;;;;;;;;;;;;-147.53;100.00;59759.91;4878389;29;20010;-90
2021/01/08 09:00:46;;;;;;;;;;;;;;;-147.53;100.00;59759.91;4838146;29;19959;-87
2021/01/08 09:03:18;;;;;;;;;;;;;;;-147.53;100.00;59759.91;4831843;29;20422;-90
2021/01/08 09:05:44;;;;;;;;;;;;;;;-147.53;100.00;59759.91;4835284;29;20063;-89
2021/01/08 09:08:25;;;;;;;;;;;;;;;-147.53;100.00;59759.91;4824565;29;20037;-86
2021/01/08 09:10:55;;;;;;;;;;;;;;;-147.53;100.00;59759.91;4863876;29;19916;-87
2021/01/08 09:13:48;;;;;;;;;;;;;;;-147.53;100.00;59759.91;4862852;29;19920;-88
2021/01/08 09:16:17;;;;;;;;;;;;;;;-147.53;100.00;59759.91;4860033;29;19916;-87
2021/01/08 09:18:46;;;;;;;;;;;;;;;-147.53;100.00;59759.91;4861341;29;20032;-85
2021/01/08 09:21:12;;;;;;;;;;;;;;;-147.53;100.00;59759.91;4844686;29;20287;-87
2021/01/08 09:23:40;;;;;;;;;;;;;;;-147.53;100.00;59759.91;4844442;29;19916;-87
2021/01/08 09:26:06;;;;;;;;;;;;;;;-147.53;100.00;59759.91;4860220;29;19920;-89
2021/01/08 09:28:45;;;;;;;;;;;;;;;-147.53;100.00;59759.91;4860670;29;19916;-85
2021/01/08 09:31:11;;;;;;;;;;;;;;;-147.53;100.00;59759.91;4858991;29;20339;-87
2021/01/08 09:33:36;;;;;;;;;;;;;;;-147.53;100.00;59759.91;4844662;29;19920;-88
2021/01/08 09:36:01;;;;;;;;;;;;;;;-147.53;100.00;59759.91;4845273;29;19960;-88
2021/01/08 09:38:28;;;;;;;;;;;;;;;-147.53;100.00;59759.91;4845389;29;20290;-88
2021/01/08 09:40:53;;;;;;;;;;;;;;;-147.53;100.00;59759.91;4844679;29;20396;-88
2021/01/08 09:43:19;;;;;;;;;;;;;;;-147.53;100.00;59759.91;4862767;29;19959;-87
2021/01/08 09:45:44;;;;;;;;;;;;;;;-147.53;100.00;59759.91;4863080;29;19964;-90
2021/01/08 09:48:30;;;;;;;;;;;;;;;-147.53;100.00;59759.91;4862605;29;19959;-87
2021/01/08 09:51:05;;;;;;;;;;;;;;;-147.53;100.00;59759.91;4846767;29;19924;-91
2021/01/08 09:53:32;;;;;;;;;;;;;;;-147.53;100.00;59759.91;4849881;29;20279;-86
2021/01/08 09:56:10;;;;;;;;;;;;;;;-147.53;100.00;59759.91;4849241;29;19963;-88
2021/01/08 09:58:35;;;;;;;;;;;;;;;-147.53;100.00;59759.91;4851013;29;19916;-88
2021/01/08 10:01:08;;;;;;;;;;;;;;;-147.53;100.00;59759.91;4852801;29;19939;-96
2021/01/08 10:03:36;;;;;;;;;;;;;;;-147.53;100.00;59759.91;4854070;29;19924;-92
2021/01/08 10:06:14;;;;;;;;;;;;;;;-147.53;100.00;59759.91;4854790;29;19923;-91
2021/01/08 10:08:42;;;;;;;;;;;;;;;-147.53;100.00;59759.91;4850225;29;19920;-93
2021/01/08 10:11:08;;;;;;;;;;;;;;;-147.53;100.00;59759.91;4837065;29;20430;-88
2021/01/08 10:13:34;;;;;;;;;;;;;;;-147.53;100.00;59759.91;4852039;29;19963;-92
2021/01/08 10:16:19;;;;;;;;;;;;;;;-147.53;100.00;59759.91;4867508;23;19920;-96
2021/01/08 10:18:44;;;;;;;;;;;;;;;-147.53;100.00;59759.91;4868987;29;20030;-92
2021/01/08 10:21:09;;;;;;;;;;;;;;;-147.53;100.00;59759.91;4850543;29;19920;-90
2021/01/08 10:23:39;;;;;;;;;;;;;;;-147.53;100.00;59759.91;4854299;29;19963;-91
2021/01/08 10:26:17;;;;;;;;;;;;;;;-147.53;100.00;59759.91;4854032;29;19916;-90
2021/01/08 10:28:56;;;;;;;;;;;;;;;-147.53;100.00;59759.91;4866566;29;20366;-88
2021/01/08 10:31:22;;;;;;;;;;;;;;;-147.53;100.00;59759.91;4850393;29;20023;-85
2021/01/08 10:33:47;;;;;;;;;;;;;;;-147.53;100.00;59759.91;4847822;29;19920;-86
2021/01/08 10:36:15;;;;;;;;;;;;;;;-147.53;100.00;59759.91;4864742;29;19924;-93
2021/01/08 10:38:48;;;;;;;;;;;;;;;-147.53;100.00;59759.91;4848059;29;19923;-87
2021/01/08 10:41:19;;;;;;;;;;;;;;;-147.53;100.00;59759.91;4844983;29;19920;-91
2021/01/08 10:43:45;;;;;;;;;;;;;;;-147.53;100.00;59759.91;4843466;29;19927;-87
2021/01/08 10:46:25;;;;;;;;;;;;;;;-147.53;100.00;59759.91;4832364;29;20289;-91
2021/01/08 10:48:51;;;;;;;;;;;;;;;-147.53;100.00;59759.91;4831926;29;19916;-90
2021/01/08 10:51:18;;;;;;;;;;;;;;;-147.53;100.00;59759.91;4831590;29;19921;-90
2021/01/08 10:53:46;;;;;;;;;;;;;;;-147.53;100.00;59759.91;4845422;29;19916;-90
2021/01/08 10:56:28;;;;;;;;;;;;;;;-147.53;100.00;59759.91;4845752;29;19917;-93
2021/01/08 10:58:53;;;;;;;;;;;;;;;-147.53;100.00;59759.91;4832840;29;19948;-89
2021/01/08 11:04:43;;;;;;;;;;;;;;;-147.53;100.00;59759.91;4867277;29;20306;-90
2021/01/08 11:07:30;;;;;;;;;;;;;;;-147.53;100.00;59759.91;4846137;29;19920;-92
2021/01/08 11:10:26;;;;;;;;;;;;;;;-147.53;100.00;59759.91;4850276;29;19939;-92
2021/01/08 11:27:33;;;;;;;;;;;;;;;-147.53;100.00;59759.91;4791204;29;20519;-87
2021/01/08 11:29:58;;;;;;;;;;;;;;;-147.53;100.00;59759.91;4794270;29;19947;-86
2021/01/08 11:32:28;;;;;;;;;;;;;;;-147.53;100.00;59759.91;4811141;29;20424;-85
2021/01/08 11:34:53;;;;;;;;;;;;;;;-147.53;100.00;59759.91;4827585;29;19927;-86
2021/01/08 11:37:39;;;;;;;;;;;;;;;-147.53;100.00;59759.91;4833945;29;20340;-89
2021/01/08 11:40:05;;;;;;;;;;;;;;;-147.53;100.00;59759.91;4828956;29;19917;-89
2021/01/08 11:42:36;;;;;;;;;;;;;;;-147.53;100.00;59759.91;4811733;29;19975;-91
2021/01/08 11:45:02;;;;;;;;;;;;;;;-147.53;100.00;59759.91;4811480;29;19923;-88
2021/01/08 11:47:27;;;;;;;;;;;;;;;-147.53;100.00;59759.91;4827574;29;19917;-87
2021/01/08 11:49:53;;;;;;;;;;;;;;;-147.53;100.00;59759.91;4811193;29;19925;-89
2021/01/08 11:52:18;;;;;;;;;;;;;;;-147.53;100.00;59759.91;4811168;29;19916;-88
2021/01/08 11:54:53;;;;;;;;;;;;;;;-147.53;100.00;59759.91;4812066;29;19927;-92
2021/01/08 11:57:18;;;;;;;;;;;;;;;-147.53;100.00;59759.91;4812042;29;19963;-89
2021/01/08 11:59:45;;;;;;;;;;;;;;;-147.53;100.00;59759.91;4810760;29;19921;-85
2021/01/08 12:02:10;;;;;;;;;;;;;;;-147.53;100.00;59759.91;4810680;29;19955;-87
2021/01/08 12:04:36;;;;;;;;;;;;;;;-147.53;100.00;59759.91;4827466;29;19968;-87
2021/01/08 12:07:03;;;;;;;;;;;;;;;-147.53;100.00;59759.91;4811324;29;19917;-87
2021/01/08 12:09:28;;;;;;;;;;;;;;;-147.53;100.00;59759.91;4825989;29;19946;-86
2021/01/08 12:11:58;;;;;;;;;;;;;;;-147.53;100.00;59759.91;4809968;29;19925;-87
2021/01/08 12:14:23;;;;;;;;;;;;;;;-147.53;100.00;59759.91;4827332;29;20170;-88
2021/01/08 12:16:48;;;;;;;;;;;;;;;-147.53;100.00;59759.91;4808587;29;20008;-91
2021/01/08 12:19:15;;;;;;;;;;;;;;;-147.53;100.00;59759.91;4811019;29;19950;-87
2021/01/08 12:21:43;;;;;;;;;;;;;;;-147.53;100.00;59759.91;4816703;29;19977;-87
2021/01/08 12:24:08;;;;;;;;;;;;;;;-147.53;100.00;59759.91;4815896;29;19917;-87
2021/01/08 12:26:34;;;;;;;;;;;;;;;-147.53;100.00;59759.91;4813796;29;20058;-86
2021/01/08 12:28:59;;;;;;;;;;;;;;;-147.53;100.00;59759.91;4810244;29;19921;-87
2021/01/08 12:31:24;;;;;;;;;;;;;;;-147.53;100.00;59759.91;4809166;29;20362;-87
2021/01/08 12:33:50;;;;;;;;;;;;;;;-147.53;100.00;59759.91;4809744;29;20407;-86
2021/01/08 12:36:16;;;;;;;;;;;;;;;-147.53;100.00;59759.91;4809226;29;19923;-86
2021/01/08 12:38:41;;;;;;;;;;;;;;;-147.53;100.00;59759.91;4809686;29;19917;-88
2021/01/08 12:41:06;;;;;;;;;;;;;;;-147.53;100.00;59759.91;4809750;29;20318;-87